Time;durP1;ratioP1;P1;durP2;ratioP2;P2;SDS_P1;SDS_P2;PMS_P1;PMS_P2;Temp;Humidity;BMP_temperature;BMP_pressure;BME280_temperature;BME280_humidity;BME280_pressure;Samples;Min_cycle;Max_cycle;Signal;HPM_P1;HPM_P2
2023/12/03 00:01:39;;;;;;;56.13;27.00;;;-2.10;99.90;;;;;;5046756;28;20021;-50
2023/12/03 00:04:04;;;;;;;55.92;27.58;;;-2.10;99.90;;;;;;5046309;28;20617;-50
2023/12/03 00:06:30;;;;;;;58.85;26.27;;;-2.10;99.90;;;;;;5046166;28;20124;-49
2023/12/03 00:08:58;;;;;;;44.60;20.95;;;-2.10;99.90;;;;;;5045337;28;20141;-52
2023/12/03 15:15:03;;;;;;;51.88;20.35;;;-2.90;99.90;;;;;;5126458;27;20138;-51
2023/12/03 15:17:30;;;;;;;44.08;18.63;;;-3.10;99.90;;;;;;5122285;28;20059;-52
2023/12/03 15:19:56;;;;;;;48.08;20.02;;;-3.20;99.90;;;;;;5110488;28;20032;-52
2023/12/03 15:22:22;;;;;;;50.83;21.58;;;-3.20;99.90;;;;;;5104462;28;20032;-50
2023/12/03 15:24:47;;;;;;;70.93;27.83;;;-3.20;99.90;;;;;;5105458;28;20391;-49
2023/12/03 15:27:13;;;;;;;79.73;33.90;;;-3.30;99.90;;;;;;5104326;28;20072;-50
2023/12/03 15:29:39;;;;;;;88.10;32.60;;;-3.30;99.90;;;;;;5104131;28;20020;-50
2023/12/03 15:32:05;;;;;;;78.63;30.53;;;-3.40;99.90;;;;;;5103585;28;20028;-51
2023/12/03 15:34:31;;;;;;;77.10;31.60;;;-3.60;99.90;;;;;;5120861;28;20137;-50
2023/12/03 15:36:56;;;;;;;75.70;32.50;;;-3.60;99.90;;;;;;5124221;28;20118;-51
2023/12/03 15:39:22;;;;;;;85.63;35.40;;;-3.60;99.90;;;;;;5115208;28;20097;-51
2023/12/03 15:41:48;;;;;;;100.53;39.53;;;-3.70;99.90;;;;;;5103642;28;20383;-52
2023/12/03 15:44:13;;;;;;;119.30;46.20;;;-3.70;99.90;;;;;;5103616;28;20557;-50
2023/12/03 15:46:39;;;;;;;117.73;49.80;;;-3.80;99.90;;;;;;5084924;28;20035;-51
2023/12/03 15:49:05;;;;;;;121.67;51.67;;;-3.90;99.90;;;;;;5103172;28;20508;-50
2023/12/03 15:51:31;;;;;;;153.87;59.47;;;-3.90;99.90;;;;;;5103610;28;20036;-52
2023/12/03 15:53:59;;;;;;;194.87;70.00;;;-3.90;99.90;;;;;;5104487;27;20529;-51
2023/12/03 15:56:24;;;;;;;210.35;77.07;;;-4.00;99.90;;;;;;5113579;27;20068;-50
2023/12/03 15:58:50;;;;;;;207.83;73.37;;;-4.20;99.90;;;;;;5105014;28;20484;-52
2023/12/03 16:01:16;;;;;;;223.40;78.90;;;-4.20;99.90;;;;;;5123673;28;20020;-51
2023/12/03 16:03:41;;;;;;;232.83;83.40;;;-4.30;99.90;;;;;;5123699;28;20106;-51
2023/12/03 16:06:08;;;;;;;221.03;84.00;;;-4.20;99.90;;;;;;5123067;28;20054;-51
2023/12/03 16:08:34;;;;;;;213.00;83.03;;;-4.20;99.90;;;;;;5123494;28;20038;-50
2023/12/03 16:11:00;;;;;;;217.03;81.00;;;-4.30;99.90;;;;;;5122510;28;20032;-51
2023/12/03 16:13:26;;;;;;;210.70;80.13;;;-4.20;99.90;;;;;;5122944;28;20043;-51
2023/12/03 16:15:51;;;;;;;201.97;74.87;;;-4.20;99.90;;;;;;5122924;28;20088;-51
2023/12/03 16:18:17;;;;;;;191.57;68.03;;;-4.10;99.90;;;;;;5123146;28;20016;-50
2023/12/03 16:20:43;;;;;;;234.93;85.60;;;-4.10;99.90;;;;;;5123043;28;20015;-55
2023/12/03 16:23:08;;;;;;;270.87;103.80;;;-4.20;99.90;;;;;;5104069;28;20056;-53
2023/12/03 16:25:36;;;;;;;270.33;100.50;;;-4.20;99.90;;;;;;5095082;28;20562;-51
2023/12/03 16:28:01;;;;;;;217.75;83.85;;;-4.30;99.90;;;;;;5109011;28;20027;-50
2023/12/03 16:30:29;;;;;;;173.90;69.20;;;-4.20;99.90;;;;;;5109019;28;20139;-51
2023/12/03 16:32:55;;;;;;;160.73;59.03;;;-4.10;99.90;;;;;;5108481;28;20351;-53
2023/12/03 16:35:22;;;;;;;150.15;57.28;;;-3.90;99.90;;;;;;5108827;28;20016;-51
2023/12/03 16:37:49;;;;;;;;;;;-3.80;99.90;;;;;;5110855;28;20490;-53
2023/12/03 16:40:21;;;;;;;161.52;61.10;;;-3.60;99.90;;;;;;5090874;28;21071;-52
2023/12/03 16:42:47;;;;;;;159.25;63.88;;;-3.60;99.90;;;;;;5091591;28;20031;-51
2023/12/03 16:45:14;;;;;;;145.23;57.70;;;-3.60;99.90;;;;;;5108731;28;20029;-50
2023/12/03 16:47:40;;;;;;;145.93;54.53;;;-3.60;99.90;;;;;;5090536;28;20046;-50
2023/12/03 16:50:07;;;;;;;146.00;54.57;;;-3.70;99.90;;;;;;5090713;28;20478;-50
2023/12/03 16:52:32;;;;;;;;;;;-3.60;99.90;;;;;;5109625;28;20043;-51
2023/12/03 16:54:58;;;;;;;117.20;48.17;;;-3.70;99.90;;;;;;5073223;28;19920;-50
2023/12/03 16:57:24;;;;;;;110.50;44.50;;;-3.80;99.90;;;;;;5108984;28;20031;-51
2023/12/03 16:59:49;;;;;;;157.10;58.90;;;-3.80;99.90;;;;;;5108976;28;20458;-50
2023/12/03 17:02:15;;;;;;;153.83;61.43;;;-3.70;99.90;;;;;;5109008;28;20042;-52
2023/12/03 17:04:41;;;;;;;149.83;57.10;;;-3.70;99.90;;;;;;5109258;28;20023;-51
2023/12/03 17:07:08;;;;;;;146.50;60.07;;;-3.70;99.90;;;;;;5108231;28;20478;-51
2023/12/03 17:09:33;;;;;;;;;;;-3.80;99.90;;;;;;5109687;28;20059;-50
2023/12/03 17:12:02;;;;;;;134.18;52.20;;;-3.70;99.90;;;;;;5108952;28;19975;-50
2023/12/03 17:14:29;;;;;;;153.18;55.13;;;-3.70;99.90;;;;;;5108628;28;20048;-51
2023/12/03 17:16:54;;;;;;;115.05;49.47;;;-3.80;99.90;;;;;;5108852;28;20874;-50
2023/12/03 17:19:20;;;;;;;119.97;47.33;;;-3.80;99.90;;;;;;5090599;28;20035;-51
2023/12/03 17:21:46;;;;;;;98.30;43.10;;;-3.70;99.90;;;;;;5108531;28;20486;-50
2023/12/03 17:24:12;;;;;;;97.07;41.70;;;-3.80;99.90;;;;;;5090265;28;20023;-51
2023/12/03 17:26:39;;;;;;;94.67;41.40;;;-3.80;99.90;;;;;;5108166;28;20028;-50
2023/12/03 17:29:06;;;;;;;;;;;-3.90;99.90;;;;;;5107936;28;20760;-51
2023/12/03 17:31:33;;;;;;;92.45;39.90;;;-3.90;99.90;;;;;;5105348;28;19950;-51
2023/12/03 17:33:58;;;;;;;89.28;35.92;;;-4.10;99.90;;;;;;5089337;28;20067;-51
2023/12/03 17:36:25;;;;;;;91.33;36.93;;;-4.20;99.90;;;;;;5106707;28;20027;-50
2023/12/03 17:38:51;;;;;;;84.45;36.67;;;-4.20;99.90;;;;;;5107670;28;20051;-52
2023/12/03 17:41:16;;;;;;;93.50;36.13;;;-4.30;99.90;;;;;;5107534;28;20136;-52
2023/12/03 17:43:42;;;;;;;91.70;35.70;;;-4.20;99.90;;;;;;5108123;28;20481;-53
2023/12/03 17:46:09;;;;;;;98.40;39.03;;;-4.20;99.90;;;;;;5107747;28;20030;-51
2023/12/03 17:48:35;;;;;;;101.68;43.72;;;-4.20;99.90;;;;;;5107301;28;20027;-52
2023/12/03 17:51:01;;;;;;;77.67;35.97;;;-4.10;99.90;;;;;;5107296;28;20031;-51
2023/12/03 17:53:27;;;;;;;84.17;36.13;;;-4.10;99.90;;;;;;5107385;28;20289;-51
2023/12/03 17:55:52;;;;;;;78.10;33.87;;;-4.10;99.90;;;;;;5107499;28;20038;-52
2023/12/03 17:58:19;;;;;;;74.70;31.00;;;-4.00;99.90;;;;;;5107487;28;20047;-51
2023/12/03 18:00:44;;;;;;;76.13;30.88;;;-4.00;99.90;;;;;;5107501;28;20100;-52
2023/12/03 18:03:12;;;;;;;71.50;31.00;;;-4.00;99.90;;;;;;5107002;28;20063;-51
2023/12/03 18:05:38;;;;;;;90.70;35.35;;;-3.90;99.90;;;;;;5108431;28;20035;-52
2023/12/03 18:08:04;;;;;;;76.67;34.57;;;-3.90;99.90;;;;;;5106377;28;20127;-51
2023/12/03 18:10:30;;;;;;;83.07;32.87;;;-3.90;99.90;;;;;;5108207;28;20309;-50
2023/12/03 18:12:55;;;;;;;81.10;33.60;;;-3.90;99.90;;;;;;5107376;28;20054;-53
2023/12/03 18:15:21;;;;;;;84.53;36.73;;;-3.80;99.90;;;;;;5108054;28;20020;-50
2023/12/03 18:17:47;;;;;;;90.13;37.00;;;-3.70;99.90;;;;;;5089826;28;20038;-52
2023/12/03 18:20:13;;;;;;;82.53;35.92;;;-3.80;99.90;;;;;;5107419;28;20363;-52
2023/12/03 18:22:41;;;;;;;86.07;36.17;;;-3.70;99.90;;;;;;5107826;28;20088;-51
2023/12/03 18:25:07;;;;;;;76.68;34.55;;;-3.70;99.90;;;;;;5107195;28;20035;-50
2023/12/03 18:27:32;;;;;;;91.77;37.53;;;-3.80;99.90;;;;;;5107602;28;20465;-51
2023/12/03 18:29:59;;;;;;;86.13;36.33;;;-3.90;99.90;;;;;;5107752;28;20265;-51
2023/12/03 18:32:28;;;;;;;97.40;39.70;;;-3.80;99.90;;;;;;5107419;28;20102;-52
2023/12/03 18:34:54;;;;;;;79.20;34.92;;;-3.90;99.90;;;;;;5107222;28;20379;-51
2023/12/03 18:37:20;;;;;;;82.15;38.58;;;-3.90;99.90;;;;;;5107789;28;20031;-52
2023/12/03 18:39:46;;;;;;;85.50;36.17;;;-4.00;99.90;;;;;;5089585;28;20394;-51
2023/12/03 18:42:12;;;;;;;80.13;35.60;;;-4.00;99.90;;;;;;5107842;28;20535;-52
2023/12/03 18:44:37;;;;;;;75.53;31.77;;;-4.10;99.90;;;;;;5107651;28;20027;-51
2023/12/03 18:47:03;;;;;;;76.07;33.60;;;-4.10;99.90;;;;;;5106714;28;20417;-52
2023/12/03 18:49:28;;;;;;;82.27;33.63;;;-4.00;99.90;;;;;;5107327;28;20023;-51
2023/12/03 18:51:54;;;;;;;82.80;35.10;;;-4.10;99.90;;;;;;5089281;28;20047;-50
2023/12/03 18:54:20;;;;;;;79.10;33.63;;;-4.20;99.90;;;;;;5089696;28;20038;-50
2023/12/03 18:56:48;;;;;;;79.50;33.03;;;-4.10;99.90;;;;;;5108594;28;20841;-50
2023/12/03 18:59:13;;;;;;;83.75;34.60;;;-4.10;99.90;;;;;;5107856;28;20032;-51
2023/12/03 19:01:39;;;;;;;81.87;32.17;;;-4.20;99.90;;;;;;5106720;28;20015;-51
2023/12/03 19:04:05;;;;;;;82.47;35.33;;;-4.00;99.90;;;;;;5108102;28;20586;-52
2023/12/03 19:06:32;;;;;;;83.30;33.90;;;-4.10;99.90;;;;;;5078538;28;20035;-52
2023/12/03 19:08:57;;;;;;;;;;;-4.10;99.90;;;;;;5091617;28;20053;-51
2023/12/03 19:11:23;;;;;;;83.57;38.90;;;-4.10;99.90;;;;;;5105550;28;19919;-52
2023/12/03 19:13:48;;;;;;;84.33;36.40;;;-4.00;99.90;;;;;;5106719;28;20063;-51
2023/12/03 19:16:14;;;;;;;73.77;32.97;;;-4.10;99.90;;;;;;5087600;28;20364;-52
2023/12/03 19:18:40;;;;;;;80.87;34.27;;;-4.20;99.90;;;;;;5090902;28;20465;-51
2023/12/03 19:21:07;;;;;;;79.15;33.40;;;-4.20;99.90;;;;;;5088423;28;20028;-51
2023/12/03 19:23:33;;;;;;;;;;;-4.20;99.90;;;;;;5068251;28;20039;-51
2023/12/03 19:25:59;;;;;;;68.35;29.75;;;-4.20;99.90;;;;;;5087098;28;19915;-51
2023/12/03 19:28:25;;;;;;;80.80;37.05;;;-4.20;99.90;;;;;;5089968;28;20386;-50
2023/12/03 19:30:51;;;;;;;75.80;33.67;;;-4.20;99.90;;;;;;5074433;28;20032;-51
2023/12/03 19:33:17;;;;;;;75.43;32.63;;;-4.10;99.90;;;;;;5093526;28;20032;-49
2023/12/03 19:35:43;;;;;;;75.93;32.17;;;-4.00;99.90;;;;;;5095500;28;20043;-51
2023/12/03 19:38:12;;;;;;;68.20;32.33;;;-4.00;99.90;;;;;;5094800;28;20075;-49
2023/12/03 19:40:38;;;;;;;67.40;31.13;;;-4.10;99.90;;;;;;5094822;28;20437;-50
2023/12/03 19:43:04;;;;;;;79.67;35.30;;;-4.20;99.90;;;;;;5089153;28;20024;-52
2023/12/03 19:45:29;;;;;;;83.00;37.00;;;-4.20;99.90;;;;;;5087195;28;20067;-48
2023/12/03 19:47:55;;;;;;;94.90;41.03;;;-4.30;99.90;;;;;;5068012;28;20025;-49
2023/12/03 19:50:20;;;;;;;61.67;25.80;;;-4.20;99.90;;;;;;5086488;28;20450;-49
2023/12/03 19:52:47;;;;;;;97.47;37.80;;;-4.30;99.90;;;;;;5085984;28;20024;-50
2023/12/03 19:55:14;;;;;;;96.22;40.65;;;-4.30;99.90;;;;;;5085587;28;20072;-50
2023/12/03 19:57:40;;;;;;;85.10;35.97;;;-4.30;99.90;;;;;;5085860;28;20131;-50
2023/12/03 20:00:06;;;;;;;83.63;35.90;;;-4.30;99.90;;;;;;5086654;28;20107;-49
2023/12/03 20:02:32;;;;;;;73.38;33.35;;;-4.30;99.90;;;;;;5071894;28;20031;-48
2023/12/03 20:04:57;;;;;;;76.40;33.40;;;-4.30;99.90;;;;;;5089244;28;20054;-49
2023/12/03 20:07:23;;;;;;;69.53;31.37;;;-4.20;99.90;;;;;;5096460;28;20024;-50
2023/12/03 20:09:49;;;;;;;69.90;31.37;;;-4.10;99.90;;;;;;5109153;28;20027;-50
2023/12/03 20:12:14;;;;;;;70.73;30.97;;;-4.00;99.90;;;;;;5109320;28;20055;-48
2023/12/03 20:14:40;;;;;;;80.60;32.73;;;-4.00;99.90;;;;;;5108685;28;20604;-48
2023/12/03 20:17:06;;;;;;;74.40;33.20;;;-4.00;99.90;;;;;;5108566;28;20043;-50
2023/12/03 20:19:31;;;;;;;81.23;33.90;;;-4.00;99.90;;;;;;5108591;28;20032;-53
2023/12/03 20:21:57;;;;;;;84.63;34.43;;;-4.00;99.90;;;;;;5108748;28;20507;-51
2023/12/03 20:24:23;;;;;;;81.20;32.57;;;-4.00;99.90;;;;;;5109299;28;20157;-49
2023/12/03 20:26:48;;;;;;;74.67;33.63;;;-4.00;99.90;;;;;;5109544;28;20423;-50
2023/12/03 20:29:14;;;;;;;73.33;33.33;;;-4.00;99.90;;;;;;5114737;28;20036;-49
2023/12/03 20:31:39;;;;;;;84.35;34.88;;;-3.90;99.90;;;;;;5098006;28;20328;-48
2023/12/03 20:34:05;;;;;;;81.27;35.83;;;-3.90;99.90;;;;;;5114147;28;20512;-50
2023/12/03 20:36:35;;;;;;;81.77;34.70;;;-3.80;99.90;;;;;;5109655;28;20028;-50
2023/12/03 20:39:03;;;;;;;102.00;40.03;;;-3.90;99.90;;;;;;5109419;28;20031;-52
2023/12/03 20:41:29;;;;;;;112.93;44.47;;;-3.90;99.90;;;;;;5107156;28;20118;-52
2023/12/03 20:43:54;;;;;;;133.43;50.73;;;-3.90;99.90;;;;;;5110376;28;20111;-53
2023/12/03 20:46:20;;;;;;;97.57;43.23;;;-3.90;99.90;;;;;;5109572;28;20471;-49
2023/12/03 20:48:46;;;;;;;114.57;44.13;;;-3.90;99.90;;;;;;5109706;28;20063;-50
2023/12/03 20:51:13;;;;;;;84.40;34.17;;;-3.90;99.90;;;;;;5108456;28;20026;-52
2023/12/03 20:53:40;;;;;;;98.00;39.47;;;-3.90;99.90;;;;;;5108863;28;20071;-52
2023/12/03 20:56:06;;;;;;;97.60;39.67;;;-3.90;99.90;;;;;;5109086;28;20551;-51
2023/12/03 20:58:32;;;;;;;90.55;40.72;;;-3.80;99.90;;;;;;5108367;28;20625;-49
2023/12/03 21:00:59;;;;;;;89.43;39.87;;;-3.80;99.90;;;;;;5108169;28;20030;-51
2023/12/03 21:03:25;;;;;;;101.82;41.95;;;-3.80;99.90;;;;;;5108211;28;20486;-51
2023/12/03 21:05:50;;;;;;;84.07;37.07;;;-3.80;99.90;;;;;;5107733;28;20043;-51
2023/12/03 21:08:16;;;;;;;89.10;37.60;;;-3.90;99.90;;;;;;5108110;28;20035;-50
2023/12/03 21:10:43;;;;;;;90.83;36.33;;;-3.80;99.90;;;;;;5107452;28;20016;-49
2023/12/03 21:13:08;;;;;;;94.30;40.63;;;-3.80;99.90;;;;;;5106213;28;20052;-50
2023/12/03 21:15:35;;;;;;;110.90;44.83;;;-3.80;99.90;;;;;;5108271;28;20504;-51
2023/12/03 21:18:01;;;;;;;119.72;44.60;;;-3.80;99.90;;;;;;5107872;28;20027;-49
2023/12/03 21:20:26;;;;;;;108.18;43.67;;;-3.80;99.90;;;;;;5107738;28;20073;-50
2023/12/03 21:22:53;;;;;;;118.45;43.92;;;-3.80;99.90;;;;;;5108074;28;20589;-49
2023/12/03 21:25:18;;;;;;;94.22;41.63;;;-3.70;99.90;;;;;;5107259;28;20458;-51
2023/12/03 21:27:44;;;;;;;65.93;29.60;;;-3.70;99.90;;;;;;5107716;28;20055;-49
2023/12/03 21:30:10;;;;;;;113.93;46.05;;;-3.70;99.90;;;;;;5107273;28;20062;-48
2023/12/03 21:32:36;;;;;;;147.02;52.78;;;-3.70;99.90;;;;;;5107666;28;20122;-50
2023/12/03 21:35:04;;;;;;;158.60;64.90;;;-3.80;99.90;;;;;;5107430;28;20605;-49
2023/12/03 21:37:29;;;;;;;280.13;110.47;;;-3.80;99.90;;;;;;5107758;28;20027;-48
2023/12/03 21:39:55;;;;;;;163.80;65.20;;;-3.80;99.90;;;;;;5107568;28;20034;-51
2023/12/03 21:42:22;;;;;;;119.17;52.93;;;-3.90;99.90;;;;;;5107702;28;20531;-47
2023/12/03 21:44:48;;;;;;;113.38;45.28;;;-3.80;99.90;;;;;;5107247;28;20122;-50
2023/12/03 21:47:13;;;;;;;91.43;37.00;;;-3.80;99.90;;;;;;5095161;28;20115;-51
2023/12/03 21:49:41;;;;;;;94.83;41.07;;;-3.80;99.90;;;;;;5087262;28;20111;-49
2023/12/03 21:52:07;;;;;;;96.93;39.20;;;-3.70;99.90;;;;;;5099264;28;20572;-51
2023/12/03 21:54:33;;;;;;;119.88;48.10;;;-3.70;99.90;;;;;;5106626;28;20076;-51
2023/12/03 21:56:59;;;;;;;114.10;45.07;;;-3.70;99.90;;;;;;5106468;28;20122;-50
2023/12/03 21:59:24;;;;;;;109.47;47.67;;;-3.60;99.90;;;;;;5106931;28;20022;-50
2023/12/03 22:01:50;;;;;;;111.80;45.33;;;-3.60;99.90;;;;;;5105672;28;20473;-52
2023/12/03 22:04:16;;;;;;;117.90;46.17;;;-3.70;99.90;;;;;;5104052;28;20023;-49
2023/12/03 22:06:41;;;;;;;118.13;47.87;;;-3.70;99.90;;;;;;5104726;28;20027;-49
2023/12/03 22:09:07;;;;;;;121.23;45.53;;;-3.70;99.90;;;;;;5105075;28;20024;-50
2023/12/03 22:11:33;;;;;;;122.70;47.33;;;-3.70;99.90;;;;;;5103994;28;20070;-51
2023/12/03 22:13:58;;;;;;;113.20;47.87;;;-3.70;99.90;;;;;;5105741;28;20083;-51
2023/12/03 22:16:24;;;;;;;118.77;48.30;;;-3.70;99.90;;;;;;5105504;28;20023;-51
2023/12/03 22:18:50;;;;;;;116.43;47.50;;;-3.70;99.90;;;;;;5106274;28;20062;-50
2023/12/03 22:21:16;;;;;;;124.28;50.20;;;-3.60;99.90;;;;;;5087460;28;20110;-49
2023/12/03 22:23:42;;;;;;;107.72;42.22;;;-3.60;99.90;;;;;;5105237;28;20035;-53
2023/12/03 22:26:08;;;;;;;100.97;42.13;;;-3.70;99.90;;;;;;5106008;28;20050;-48
2023/12/03 22:28:34;;;;;;;107.60;44.07;;;-3.60;99.90;;;;;;5106453;28;20112;-49
2023/12/03 22:31:00;;;;;;;108.43;43.38;;;-3.60;99.90;;;;;;5105630;28;20473;-50
2023/12/03 22:33:25;;;;;;;99.27;42.67;;;-3.60;99.90;;;;;;5106526;28;20061;-49
2023/12/03 22:35:51;;;;;;;98.60;43.60;;;-3.50;99.90;;;;;;5106401;28;20097;-49
